createdAt,value
2022-12-03T00:02:13.706Z,7.90
2022-12-03T00:04:40.488Z,7.90
2022-12-03T00:07:07.190Z,7.80
2022-12-03T00:09:33.860Z,7.80
2022-12-03T00:12:00.595Z,7.70
2022-12-03T00:14:27.396Z,7.60
2022-12-03T00:16:54.107Z,7.50
2022-12-03T00:19:20.825Z,7.50
2022-12-03T00:21:47.603Z,7.50
2022-12-03T00:24:14.259Z,7.60
2022-12-03T00:26:40.975Z,7.50
2022-12-03T00:29:07.719Z,7.70
2022-12-03T00:31:34.436Z,7.50
2022-12-03T00:34:01.297Z,7.60
2022-12-03T00:36:28.097Z,7.40
2022-12-03T00:38:54.819Z,7.40
2022-12-03T00:41:21.588Z,7.40
2022-12-03T00:43:48.243Z,7.30
2022-12-03T00:46:20.927Z,7.30
2022-12-03T00:48:48.147Z,7.40
2022-12-03T00:51:14.869Z,7.40
2022-12-03T00:53:41.582Z,7.60
2022-12-03T00:56:08.773Z,7.40
2022-12-03T00:58:35.466Z,7.40
2022-12-03T01:01:02.524Z,7.30
2022-12-03T01:03:29.340Z,7.20
2022-12-03T01:05:56.104Z,7.20
2022-12-03T01:08:22.909Z,7.20
2022-12-03T01:10:49.642Z,7.10
2022-12-03T01:13:16.347Z,7.10
2022-12-03T01:15:43.208Z,7.10
2022-12-03T01:18:10.028Z,7.10
2022-12-03T01:20:36.724Z,7.10
2022-12-03T01:23:03.453Z,7.00
2022-12-03T01:25:30.541Z,7.00
2022-12-03T01:27:57.232Z,7.10
2022-12-03T01:30:23.933Z,7.10
2022-12-03T01:32:50.596Z,7.10
2022-12-03T01:35:17.330Z,7.20
2022-12-03T01:37:44.065Z,7.20
2022-12-03T01:40:15.786Z,7.20
2022-12-03T01:42:42.744Z,7.30
2022-12-03T01:45:22.586Z,7.30
2022-12-03T01:47:49.665Z,7.40
2022-12-03T01:50:27.140Z,7.40
2022-12-03T01:52:55.888Z,7.50
2022-12-03T01:55:25.069Z,7.50
2022-12-03T01:57:54.649Z,7.60
2022-12-03T02:00:24.308Z,7.50
2022-12-03T02:02:54.959Z,7.50
2022-12-03T02:05:30.615Z,7.60
2022-12-03T02:07:58.157Z,7.60
2022-12-03T02:10:36.105Z,7.70
2022-12-03T02:13:08.554Z,7.70
2022-12-03T02:15:37.883Z,7.70
2022-12-03T02:18:05.216Z,7.70
2022-12-03T02:20:42.960Z,7.80
2022-12-03T02:23:28.240Z,7.70
2022-12-03T02:25:55.024Z,7.70
2022-12-03T02:28:21.936Z,7.70
2022-12-03T02:30:48.641Z,7.70
2022-12-03T02:33:15.427Z,7.60
2022-12-03T02:35:42.139Z,7.60
2022-12-03T02:38:22.926Z,7.60
2022-12-03T02:40:53.489Z,7.70
2022-12-03T02:43:21.565Z,7.70
2022-12-03T02:45:55.201Z,7.70
2022-12-03T02:48:35.476Z,8.30
2022-12-03T02:51:05.861Z,7.80
2022-12-03T02:53:45.691Z,7.80
2022-12-03T02:56:15.968Z,7.70
2022-12-03T02:58:44.905Z,7.70
2022-12-03T03:01:12.128Z,7.70
2022-12-03T03:03:39.333Z,7.80
2022-12-03T03:06:08.108Z,7.80
2022-12-03T03:08:36.945Z,8.00
2022-12-03T03:11:04.201Z,7.90
2022-12-03T03:13:33.593Z,7.80
2022-12-03T03:16:04.418Z,7.90
2022-12-03T03:18:32.608Z,8.70
2022-12-03T03:20:59.429Z,7.80
2022-12-03T03:23:26.301Z,7.90
2022-12-03T03:26:10.382Z,7.90
2022-12-03T03:28:45.593Z,8.00
2022-12-03T03:31:15.272Z,7.80
2022-12-03T03:33:43.812Z,7.90
2022-12-03T03:36:11.127Z,7.80
2022-12-03T03:38:39.088Z,7.90
2022-12-03T03:41:07.063Z,7.80
2022-12-03T03:43:35.589Z,7.80
2022-12-03T03:46:06.427Z,7.90
2022-12-03T03:48:34.741Z,7.80
2022-12-03T03:51:09.307Z,7.80
2022-12-03T03:53:42.283Z,7.80
2022-12-03T03:56:09.667Z,7.80
2022-12-03T03:58:36.966Z,7.90
2022-12-03T04:01:03.818Z,7.90
2022-12-03T04:03:30.581Z,7.90
2022-12-03T04:05:57.431Z,7.90
2022-12-03T04:08:24.231Z,7.90
2022-12-03T04:11:09.695Z,7.90
2022-12-03T04:13:36.363Z,7.90
2022-12-03T04:16:03.218Z,7.90
2022-12-03T04:18:44.821Z,7.80
2022-12-03T04:21:36.197Z,7.80
2022-12-03T04:24:04.004Z,7.90
2022-12-03T04:26:49.898Z,8.00
2022-12-03T04:29:18.076Z,7.90
2022-12-03T04:32:03.791Z,7.90
2022-12-03T04:34:49.314Z,8.00
2022-12-03T04:37:16.474Z,7.90
2022-12-03T04:39:43.404Z,7.80
2022-12-03T04:42:10.112Z,7.80
2022-12-03T04:44:36.957Z,7.90
2022-12-03T04:47:12.998Z,7.90
2022-12-03T04:49:42.305Z,7.90
2022-12-03T04:52:10.540Z,8.00
2022-12-03T04:54:37.920Z,7.90
2022-12-03T04:57:05.574Z,8.00
2022-12-03T04:59:32.943Z,7.90
2022-12-03T05:02:00.002Z,7.90
2022-12-03T05:04:27.031Z,7.90
2022-12-03T05:06:53.879Z,7.80
2022-12-03T05:09:20.844Z,8.00
2022-12-03T05:11:47.729Z,8.00
2022-12-03T05:14:14.461Z,7.90
2022-12-03T05:16:41.230Z,7.90
2022-12-03T05:19:08.940Z,7.90
2022-12-03T05:21:35.746Z,7.90
2022-12-03T05:24:02.812Z,7.80
2022-12-03T05:26:29.853Z,7.90
2022-12-03T05:28:56.680Z,7.80
2022-12-03T05:31:23.375Z,7.70
2022-12-03T05:33:50.490Z,7.90
2022-12-03T05:36:17.444Z,7.90
2022-12-03T05:38:44.177Z,7.90
2022-12-03T05:41:29.467Z,7.80
2022-12-03T05:43:56.217Z,7.70
2022-12-03T05:46:22.983Z,7.80
2022-12-03T05:48:49.816Z,7.80
2022-12-03T05:51:16.544Z,7.70
2022-12-03T05:53:43.199Z,7.80
2022-12-03T05:56:09.909Z,7.80
2022-12-03T05:58:36.677Z,7.80
2022-12-03T06:01:03.421Z,7.90
2022-12-03T06:03:30.250Z,7.80
2022-12-03T06:05:57.174Z,7.60
2022-12-03T06:08:23.900Z,7.60
2022-12-03T06:10:50.648Z,7.80
2022-12-03T06:13:17.453Z,7.70
2022-12-03T06:15:44.401Z,7.80
2022-12-03T06:18:11.628Z,7.80
2022-12-03T06:20:38.344Z,7.70
2022-12-03T06:23:05.041Z,7.80
2022-12-03T06:25:31.881Z,7.80
2022-12-03T06:27:58.613Z,7.80
2022-12-03T06:30:25.318Z,7.80
2022-12-03T06:32:52.684Z,8.60
2022-12-03T06:35:19.378Z,7.80
2022-12-03T06:37:48.962Z,7.70
2022-12-03T06:40:16.736Z,7.80
2022-12-03T06:42:43.835Z,7.80
2022-12-03T06:45:11.640Z,7.70
2022-12-03T06:47:38.434Z,7.70
2022-12-03T06:50:07.568Z,7.80
2022-12-03T06:52:34.520Z,7.70
2022-12-03T06:55:01.482Z,7.80
2022-12-03T06:57:28.232Z,7.80
2022-12-03T06:59:55.124Z,7.80
2022-12-03T07:02:22.175Z,7.80
2022-12-03T07:04:48.906Z,7.70
2022-12-03T07:07:15.580Z,7.70
2022-12-03T07:09:42.721Z,7.70
2022-12-03T07:12:09.468Z,7.80
2022-12-03T07:14:36.203Z,7.80
2022-12-03T07:17:03.038Z,7.80
2022-12-03T07:19:32.886Z,7.70
2022-12-03T07:22:00.326Z,7.70
2022-12-03T07:24:27.631Z,7.70
2022-12-03T07:26:54.413Z,7.60
2022-12-03T07:29:21.167Z,7.60
2022-12-03T07:31:48.054Z,7.70
2022-12-03T07:34:14.859Z,7.60
2022-12-03T07:36:41.606Z,7.60
2022-12-03T07:39:08.262Z,7.60
2022-12-03T07:41:34.970Z,7.70
2022-12-03T07:44:01.804Z,7.70
2022-12-03T07:46:28.548Z,7.70
2022-12-03T07:48:55.336Z,7.70
2022-12-03T07:51:23.447Z,7.70
2022-12-03T07:53:52.870Z,7.70
2022-12-03T07:56:19.561Z,7.80
2022-12-03T07:58:46.412Z,7.70
2022-12-03T08:01:13.188Z,7.80
2022-12-03T08:03:40.091Z,7.80
2022-12-03T08:06:07.069Z,7.70
2022-12-03T08:08:33.799Z,7.70
2022-12-03T08:11:01.929Z,7.60
2022-12-03T08:13:28.867Z,7.60
2022-12-03T08:15:59.497Z,7.70
2022-12-03T08:18:27.959Z,7.60
2022-12-03T08:20:54.624Z,7.60
2022-12-03T08:23:24.133Z,7.60
2022-12-03T08:25:52.053Z,7.70
2022-12-03T08:28:24.133Z,7.60
2022-12-03T08:31:18.460Z,7.60
2022-12-03T08:33:46.388Z,7.70
2022-12-03T08:36:25.255Z,7.60
2022-12-03T08:38:54.718Z,7.60
2022-12-03T08:41:41.320Z,7.60
2022-12-03T08:44:38.427Z,7.60
2022-12-03T08:47:22.859Z,7.60
2022-12-03T08:50:22.564Z,7.60
2022-12-03T08:52:49.476Z,8.10
2022-12-03T08:55:36.305Z,7.60
2022-12-03T08:58:27.783Z,7.60
2022-12-03T09:01:05.264Z,7.60
2022-12-03T09:03:57.129Z,7.60
2022-12-03T09:06:23.858Z,7.50
2022-12-03T09:08:50.651Z,7.60
2022-12-03T09:11:17.391Z,7.50
2022-12-03T09:13:44.260Z,7.50
2022-12-03T09:16:11.208Z,7.50
2022-12-03T09:18:37.939Z,7.60
2022-12-03T09:21:04.932Z,7.60
2022-12-03T09:23:31.654Z,7.70
2022-12-03T09:25:59.125Z,7.60
2022-12-03T09:28:25.930Z,7.60
2022-12-03T09:30:52.593Z,7.20
2022-12-03T09:33:19.333Z,7.50
2022-12-03T09:35:46.124Z,7.50
2022-12-03T09:38:12.840Z,7.60
2022-12-03T09:40:40.664Z,7.60
2022-12-03T09:43:07.520Z,7.60
2022-12-03T09:45:34.526Z,7.50
2022-12-03T09:48:03.873Z,7.40
2022-12-03T09:50:31.314Z,7.40
2022-12-03T09:53:02.642Z,7.30
2022-12-03T09:55:30.759Z,7.40
2022-12-03T09:57:58.085Z,7.30
2022-12-03T10:00:27.904Z,7.30
2022-12-03T10:02:58.299Z,7.30
2022-12-03T10:05:25.754Z,7.30
2022-12-03T10:07:52.830Z,7.30
2022-12-03T10:10:25.044Z,7.40
2022-12-03T10:12:52.698Z,7.30
2022-12-03T10:15:22.934Z,7.40
2022-12-03T10:17:52.383Z,7.30
2022-12-03T10:20:21.161Z,7.30
2022-12-03T10:22:51.224Z,7.30
2022-12-03T10:25:20.862Z,7.30
2022-12-03T10:27:59.927Z,7.40
2022-12-03T10:30:28.548Z,7.40
2022-12-03T10:32:58.156Z,7.40
2022-12-03T10:35:37.422Z,7.30
2022-12-03T10:38:07.478Z,7.40
2022-12-03T10:40:37.076Z,7.40
2022-12-03T10:43:20.084Z,7.30
2022-12-03T10:46:08.444Z,7.40
2022-12-03T10:48:35.212Z,7.40
2022-12-03T10:51:10.119Z,7.40
2022-12-03T10:53:39.868Z,7.40
2022-12-03T10:56:11.700Z,7.40
2022-12-03T10:58:40.526Z,7.50
2022-12-03T11:01:18.912Z,7.50
2022-12-03T11:03:46.051Z,7.50
2022-12-03T11:06:16.537Z,7.40
2022-12-03T11:08:47.441Z,7.30
2022-12-03T11:11:24.869Z,7.30
2022-12-03T11:13:55.558Z,7.40
2022-12-03T11:16:51.348Z,7.30
2022-12-03T11:19:39.199Z,7.20
2022-12-03T11:22:05.923Z,7.30
2022-12-03T11:24:41.404Z,7.30
2022-12-03T11:27:16.861Z,7.30
2022-12-03T11:30:01.151Z,7.30
2022-12-03T11:32:42.802Z,7.30
2022-12-03T11:35:14.289Z,7.20
2022-12-03T11:37:41.019Z,7.20
2022-12-03T11:40:16.889Z,7.20
2022-12-03T11:42:45.074Z,7.20
2022-12-03T11:45:30.841Z,7.30
2022-12-03T11:48:04.810Z,7.30
2022-12-03T11:50:39.692Z,7.20
2022-12-03T11:53:19.164Z,7.30
2022-12-03T11:55:51.974Z,7.20
2022-12-03T11:58:26.350Z,7.20
2022-12-03T12:00:58.477Z,7.10
2022-12-03T12:03:28.478Z,7.20
2022-12-03T12:06:07.761Z,7.20
2022-12-03T12:08:37.270Z,7.20
2022-12-03T12:11:15.466Z,7.30
2022-12-03T12:13:45.005Z,7.30
2022-12-03T12:16:12.039Z,7.40
2022-12-03T12:18:46.560Z,7.30
2022-12-03T12:21:41.943Z,7.40
2022-12-03T12:24:45.807Z,7.40
2022-12-03T12:27:45.535Z,7.40
2022-12-03T12:30:18.182Z,7.20
2022-12-03T12:32:47.722Z,7.30
2022-12-03T12:35:25.951Z,7.30
2022-12-03T12:38:10.831Z,7.30
2022-12-03T12:40:39.912Z,7.20
2022-12-03T12:43:25.668Z,7.20
2022-12-03T12:45:54.696Z,7.20
2022-12-03T12:48:34.168Z,7.20
2022-12-03T12:51:08.841Z,7.20
2022-12-03T12:53:37.124Z,7.10
2022-12-03T12:56:27.196Z,7.00
2022-12-03T12:58:56.494Z,6.90
2022-12-03T13:01:28.404Z,6.90
2022-12-03T13:03:56.508Z,7.00
2022-12-03T13:06:28.363Z,7.00
2022-12-03T13:08:55.312Z,7.10
2022-12-03T13:11:25.000Z,7.10
2022-12-03T13:13:52.352Z,7.10
2022-12-03T13:16:19.867Z,7.10
2022-12-03T13:18:53.823Z,7.00
2022-12-03T13:21:21.271Z,7.00
2022-12-03T13:23:50.828Z,7.10
2022-12-03T13:26:38.201Z,7.00
2022-12-03T13:29:15.147Z,6.90
2022-12-03T13:32:03.290Z,6.80
2022-12-03T13:34:33.735Z,6.70
2022-12-03T13:37:12.483Z,6.60
2022-12-03T13:39:43.775Z,6.70
2022-12-03T13:42:38.816Z,6.70
2022-12-03T13:45:14.739Z,6.70
2022-12-03T13:47:43.237Z,6.70
2022-12-03T13:50:36.400Z,6.70
2022-12-03T13:53:37.348Z,6.70
2022-12-03T13:56:15.882Z,6.80
2022-12-03T13:58:42.605Z,6.70
2022-12-03T14:01:09.425Z,6.80
2022-12-03T14:03:36.181Z,6.70
2022-12-03T14:06:02.994Z,6.70
2022-12-03T14:08:29.810Z,6.70
2022-12-03T14:11:00.334Z,6.60
2022-12-03T14:13:27.724Z,6.50
2022-12-03T14:15:54.560Z,6.50
2022-12-03T14:18:21.404Z,6.50
2022-12-03T14:20:48.275Z,6.50
2022-12-03T14:23:15.333Z,6.50
2022-12-03T14:25:43.925Z,6.50
2022-12-03T14:28:10.969Z,6.50
2022-12-03T14:30:37.699Z,6.50
2022-12-03T14:33:04.395Z,6.50
2022-12-03T14:35:31.055Z,6.60
2022-12-03T14:37:57.778Z,6.60
2022-12-03T14:40:24.485Z,6.70
2022-12-03T14:42:51.252Z,6.70
2022-12-03T14:45:17.931Z,6.70
2022-12-03T14:47:44.648Z,6.80
2022-12-03T14:50:14.422Z,7.00
2022-12-03T14:52:41.451Z,6.60
2022-12-03T14:55:08.657Z,6.70
2022-12-03T14:57:36.943Z,6.60
2022-12-03T15:00:05.494Z,6.70
2022-12-03T15:02:32.307Z,6.80
2022-12-03T15:04:59.125Z,6.80
2022-12-03T15:07:25.841Z,6.80
2022-12-03T15:09:52.866Z,6.70
2022-12-03T15:12:19.828Z,6.70
2022-12-03T15:14:47.497Z,6.70
2022-12-03T15:17:14.300Z,6.70
2022-12-03T15:19:41.445Z,6.70
2022-12-03T15:22:08.160Z,6.70
2022-12-03T15:24:34.840Z,6.80
2022-12-03T15:27:01.597Z,6.70
2022-12-03T15:29:28.408Z,6.70
2022-12-03T15:31:55.227Z,6.60
2022-12-03T15:34:23.113Z,6.60
2022-12-03T15:36:50.341Z,6.50
2022-12-03T15:39:17.079Z,6.60
2022-12-03T15:41:43.744Z,6.60
2022-12-03T15:44:10.610Z,6.60
2022-12-03T15:46:37.452Z,6.50
2022-12-03T15:49:04.236Z,6.40
2022-12-03T15:51:30.906Z,6.50
2022-12-03T15:53:57.552Z,6.50
2022-12-03T15:56:24.191Z,6.50
2022-12-03T15:58:50.953Z,6.50
2022-12-03T16:01:18.227Z,6.50
2022-12-03T16:03:45.373Z,6.50
2022-12-03T16:06:12.607Z,6.50
2022-12-03T16:08:39.301Z,6.50
2022-12-03T16:11:06.197Z,6.40
2022-12-03T16:13:32.876Z,6.30
2022-12-03T16:15:59.630Z,6.30
2022-12-03T16:18:26.384Z,6.30
2022-12-03T16:20:53.113Z,6.30
2022-12-03T16:23:19.772Z,6.40
2022-12-03T16:25:46.587Z,6.50
2022-12-03T16:28:13.335Z,6.50
2022-12-03T16:30:40.131Z,6.40
2022-12-03T16:33:06.850Z,6.50
2022-12-03T16:35:33.555Z,6.70
2022-12-03T16:38:00.253Z,6.50
2022-12-03T16:40:26.983Z,6.50
2022-12-03T16:42:53.647Z,6.60
2022-12-03T16:45:40.605Z,6.60
2022-12-03T16:48:07.307Z,6.60
2022-12-03T16:50:34.504Z,6.50
2022-12-03T16:53:01.239Z,6.40
2022-12-03T16:55:27.977Z,6.30
2022-12-03T16:57:54.720Z,6.30
2022-12-03T17:00:25.882Z,6.30
2022-12-03T17:02:52.803Z,6.20
2022-12-03T17:05:19.588Z,6.30
2022-12-03T17:07:46.365Z,6.40
2022-12-03T17:10:13.509Z,6.40
2022-12-03T17:13:07.604Z,6.40
2022-12-03T17:15:27.110Z,6.30
2022-12-03T17:17:53.820Z,6.20
2022-12-03T17:20:20.511Z,6.20
2022-12-03T17:22:47.164Z,6.20
2022-12-03T17:25:13.947Z,6.30
2022-12-03T17:27:44.989Z,6.30
2022-12-03T17:30:12.900Z,6.30
2022-12-03T17:32:39.950Z,6.40
2022-12-03T17:35:07.200Z,6.30
2022-12-03T17:37:33.936Z,6.30
2022-12-03T17:40:00.664Z,6.30
2022-12-03T17:42:27.338Z,6.30
2022-12-03T17:44:54.051Z,6.30
2022-12-03T17:47:24.307Z,6.20
2022-12-03T17:49:51.014Z,6.20
2022-12-03T17:52:17.754Z,6.30
2022-12-03T17:55:09.304Z,6.30
2022-12-03T17:57:31.179Z,6.20
2022-12-03T17:59:57.837Z,6.20
2022-12-03T18:02:24.558Z,6.20
2022-12-03T18:04:52.491Z,6.20
2022-12-03T18:07:19.164Z,6.30
2022-12-03T18:09:45.816Z,6.30
2022-12-03T18:12:12.783Z,6.40
2022-12-03T18:14:39.423Z,6.40
2022-12-03T18:17:06.146Z,6.40
2022-12-03T18:19:32.916Z,6.40
2022-12-03T18:21:59.637Z,6.50
2022-12-03T18:24:26.481Z,6.50
2022-12-03T18:26:53.241Z,6.60
2022-12-03T18:29:19.951Z,6.50
2022-12-03T18:31:46.694Z,6.50
2022-12-03T18:34:14.054Z,6.40
2022-12-03T18:36:40.820Z,6.30
2022-12-03T18:39:12.224Z,6.20
2022-12-03T18:41:39.179Z,6.50
2022-12-03T18:44:09.449Z,6.30
2022-12-03T18:46:53.850Z,6.40
2022-12-03T18:49:20.855Z,6.30
2022-12-03T18:51:48.428Z,6.30
2022-12-03T18:54:15.622Z,6.30
2022-12-03T18:56:42.370Z,6.30
2022-12-03T18:59:09.581Z,6.40
2022-12-03T19:01:36.714Z,6.50
2022-12-03T19:04:03.829Z,6.50
2022-12-03T19:06:30.663Z,6.60
2022-12-03T19:08:57.792Z,6.60
2022-12-03T19:11:24.673Z,6.60
2022-12-03T19:13:52.053Z,6.70
2022-12-03T19:16:19.113Z,6.70
2022-12-03T19:18:45.894Z,6.50
2022-12-03T19:21:15.050Z,6.50
2022-12-03T19:23:47.338Z,6.40
2022-12-03T19:26:25.767Z,6.50
2022-12-03T19:28:53.820Z,6.50
2022-12-03T19:31:20.884Z,6.50
2022-12-03T19:33:48.276Z,6.40
2022-12-03T19:36:23.672Z,6.30
2022-12-03T19:38:56.635Z,6.30
2022-12-03T19:41:27.219Z,6.30
2022-12-03T19:43:55.901Z,6.20
2022-12-03T19:46:24.393Z,6.20
2022-12-03T19:48:51.429Z,6.10
2022-12-03T19:51:33.970Z,6.10
2022-12-03T19:54:01.164Z,6.20
2022-12-03T19:56:30.202Z,6.30
2022-12-03T19:58:57.726Z,6.40
2022-12-03T20:01:27.861Z,6.40
2022-12-03T20:03:56.210Z,6.50
2022-12-03T20:06:25.728Z,6.40
2022-12-03T20:08:58.077Z,6.40
2022-12-03T20:11:28.239Z,6.40
2022-12-03T20:13:57.531Z,6.40
2022-12-03T20:16:25.614Z,6.50
2022-12-03T20:18:56.835Z,6.40
2022-12-03T20:21:23.525Z,6.40
2022-12-03T20:23:50.582Z,6.50
2022-12-03T20:26:20.073Z,6.50
2022-12-03T20:28:50.633Z,6.50
2022-12-03T20:31:19.673Z,6.50
2022-12-03T20:33:49.213Z,6.50
2022-12-03T20:36:18.276Z,6.40
2022-12-03T20:38:45.339Z,6.30
2022-12-03T20:41:21.398Z,6.30
2022-12-03T20:43:48.839Z,6.30
2022-12-03T20:46:31.056Z,6.30
2022-12-03T20:48:58.504Z,6.30
2022-12-03T20:51:27.819Z,6.30
2022-12-03T20:53:54.539Z,6.20
2022-12-03T20:56:27.370Z,6.20
2022-12-03T20:58:54.561Z,6.30
2022-12-03T21:01:23.935Z,6.30
2022-12-03T21:03:51.850Z,6.20
2022-12-03T21:06:19.750Z,6.20
2022-12-03T21:08:46.787Z,6.20
2022-12-03T21:11:17.112Z,6.30
2022-12-03T21:13:45.076Z,6.30
2022-12-03T21:16:14.545Z,6.30
2022-12-03T21:18:41.840Z,6.30
2022-12-03T21:21:10.367Z,6.30
2022-12-03T21:23:37.081Z,6.30
2022-12-03T21:26:15.260Z,6.40
2022-12-03T21:28:44.106Z,6.40
2022-12-03T21:31:14.051Z,6.30
2022-12-03T21:33:40.948Z,6.20
2022-12-03T21:36:08.549Z,6.20
2022-12-03T21:38:36.168Z,6.30
2022-12-03T21:41:03.848Z,6.30
2022-12-03T21:43:31.169Z,6.30
2022-12-03T21:45:58.177Z,6.30
2022-12-03T21:48:24.858Z,6.30
2022-12-03T21:51:18.244Z,6.30
2022-12-03T21:53:45.750Z,6.30
2022-12-03T21:56:15.459Z,6.40
2022-12-03T21:58:42.538Z,6.20
2022-12-03T22:01:15.045Z,6.30
2022-12-03T22:03:42.201Z,6.30
2022-12-03T22:06:10.009Z,6.30
2022-12-03T22:08:37.418Z,6.30
2022-12-03T22:11:15.661Z,6.30
2022-12-03T22:13:42.759Z,6.30
2022-12-03T22:16:12.951Z,6.40
2022-12-03T22:18:39.747Z,6.40
2022-12-03T22:21:08.811Z,6.40
2022-12-03T22:23:35.911Z,6.30
2022-12-03T22:26:05.924Z,6.20
2022-12-03T22:28:33.626Z,6.80
2022-12-03T22:31:05.136Z,6.10
2022-12-03T22:33:31.877Z,6.20
2022-12-03T22:36:01.872Z,6.10
2022-12-03T22:38:30.512Z,6.00
2022-12-03T22:40:57.427Z,6.00
2022-12-03T22:43:24.524Z,6.10
2022-12-03T22:45:55.449Z,6.10
2022-12-03T22:48:23.181Z,6.10
2022-12-03T22:50:52.328Z,6.10
2022-12-03T22:53:19.659Z,6.10
2022-12-03T22:55:54.961Z,6.20
2022-12-03T22:58:22.316Z,6.10
2022-12-03T23:00:49.230Z,6.10
2022-12-03T23:03:16.259Z,6.90
2022-12-03T23:05:43.211Z,6.20
2022-12-03T23:08:13.372Z,6.20
2022-12-03T23:10:44.272Z,6.20
2022-12-03T23:13:11.826Z,6.20
2022-12-03T23:15:50.395Z,6.30
2022-12-03T23:18:18.147Z,6.30
2022-12-03T23:20:50.576Z,6.30
2022-12-03T23:23:19.513Z,6.20
2022-12-03T23:26:00.792Z,6.30
2022-12-03T23:28:29.340Z,6.30
2022-12-03T23:30:56.726Z,6.30
2022-12-03T23:33:24.206Z,6.40
2022-12-03T23:35:50.956Z,6.40
2022-12-03T23:38:18.281Z,6.30
2022-12-03T23:40:48.209Z,6.40
2022-12-03T23:43:16.054Z,6.30
2022-12-03T23:45:42.841Z,6.40
2022-12-03T23:48:09.540Z,6.30
2022-12-03T23:50:39.666Z,6.20
2022-12-03T23:53:06.423Z,6.10
2022-12-03T23:55:33.589Z,6.10
2022-12-03T23:58:00.338Z,6.00
